モンテビデオ の空港の天気 - METARとTAF

カラスコ国際空港 ( SUMU / MVD ) - ウルグアイ モンテビデオ
飛行場実況気象(Metar)
観測時間09/25 17:00 UYT (09/25 20:00 UTC)
風向・風速東南東 7m/s
視程10km以上
天気現象
なし
気温16℃
湿度72%
気圧1015hPa
METARSUMU 252000Z 12013KT CAVOK 16/11 Q1015 NOSIG
過去の天気等 Google飛行場航空写真 Wunderground天気予報

過去48時間のMETAR

飛行場予報(TAF)
発表時間: 9/25 14:30 UYT (9/25 17:30 UTC)
予報対象時間: 25日15時 UYT ~ 26日15時 UYT
風向・風速東 4m/s
視程10km以上
なし
26日0時 UYT ~ 26日2時 UYT に徐々に
視程10km以上
全天の8割程度の雲 雲底高度 460m
全天の8割程度の雲 雲底高度 2130m
26日2時 UYT ~ 26日10時 UYT に一時的に
視程3000m
天気現象雨 もや
全天の8割程度の雲 雲底高度 300m
全天の8割程度の雲 雲底高度 2130m
TAF SUMU 251730Z 2518/2618 09008KT CAVOK TX19/2618Z TN12/2610Z
BECMG 2603/2605 9999 BKN015 BKN070
TEMPO 2605/2613 3000 RA BR BKN010 BKN070